Time;durP1;ratioP1;P1;durP2;ratioP2;P2;SDS_P1;SDS_P2;PMS_P1;PMS_P2;Temp;Humidity;BMP_temperature;BMP_pressure;BME280_temperature;BME280_humidity;BME280_pressure;Samples;Min_cycle;Max_cycle;Signal;HPM_P1;HPM_P2
2022/01/30 00:01:49;;;;;;;33.47;10.50;;;;;;;5.08;83.73;102700.59;5092037;28;20028;-79
2022/01/30 00:04:15;;;;;;;22.27;3.78;;;;;;;5.07;83.36;102698.84;5092788;28;20034;-79
2022/01/30 00:06:40;;;;;;;24.60;4.93;;;;;;;5.05;83.77;102708.25;5091908;28;20493;-79
2022/01/30 00:09:09;;;;;;;20.83;3.65;;;;;;;5.02;83.29;102703.88;5092628;28;20111;-79
2022/01/30 00:11:37;;;;;;;102.05;38.08;;;;;;;4.99;84.26;102710.59;5089973;28;20449;-79
2022/01/30 00:14:05;;;;;;;27.30;5.28;;;;;;;4.98;83.03;102704.59;5071072;28;20343;-79
2022/01/30 00:16:34;;;;;;;24.30;5.80;;;;;;;4.97;82.92;102708.00;5082982;28;20024;-79
2022/01/30 00:24:09;;;;;;;20.27;3.75;;;;;;;4.89;83.91;102708.59;5072261;28;20552;-79
2022/01/30 00:26:37;;;;;;;19.08;3.20;;;;;;;4.86;83.41;102696.53;5073581;28;20032;-79
2022/01/30 00:29:04;;;;;;;23.65;3.30;;;;;;;4.86;83.54;102711.94;5077474;28;20028;-78
2022/01/30 00:31:31;;;;;;;28.95;4.78;;;;;;;4.85;83.65;102722.16;5074831;28;20513;-79
2022/01/30 00:33:56;;;;;;;23.33;3.47;;;;;;;4.85;83.56;102719.59;5079525;28;20147;-78
2022/01/30 00:36:21;;;;;;;25.70;3.80;;;;;;;4.83;83.54;102713.56;5090198;28;20181;-78
2022/01/30 00:38:47;;;;;;;21.55;3.67;;;;;;;4.78;83.94;102710.00;5083456;28;20159;-78
2022/01/30 00:41:12;;;;;;;24.17;5.20;;;;;;;4.74;84.76;102707.31;5072270;28;20025;-78
2022/01/30 00:43:38;;;;;;;20.13;4.30;;;;;;;4.73;83.96;102714.97;5084225;28;20063;-78
2022/01/30 00:46:03;;;;;;;47.40;11.40;;;;;;;4.70;85.16;102714.91;5085343;28;20111;-79
2022/01/30 00:48:28;;;;;;;21.17;3.92;;;;;;;4.65;84.43;102717.31;5082470;28;20029;-79
2022/01/30 00:50:54;;;;;;;20.85;2.83;;;;;;;4.69;84.13;102720.84;5075252;28;20024;-79
2022/01/30 00:53:19;;;;;;;19.40;2.60;;;;;;;4.67;84.99;102730.19;5090856;28;20100;-78
2022/01/30 00:55:45;;;;;;;21.85;3.22;;;;;;;4.68;84.68;102729.38;5091000;28;20068;-79
2022/01/30 00:58:11;;;;;;;19.30;3.38;;;;;;;4.65;84.31;102735.28;5089281;28;20021;-79
2022/01/30 01:00:36;;;;;;;26.45;3.20;;;;;;;4.60;84.98;102736.84;5090379;28;20110;-79
2022/01/30 01:03:02;;;;;;;25.42;3.10;;;;;;;4.53;85.16;102726.34;5090346;28;20031;-79
2022/01/30 01:05:30;;;;;;;22.55;2.97;;;;;;;4.53;85.25;102734.03;5090187;28;20028;-79
2022/01/30 01:07:57;;;;;;;24.13;2.95;;;;;;;4.49;84.93;102739.91;5090865;28;20016;-78
2022/01/30 01:10:41;;;;;;;22.85;3.15;;;;;;;4.48;85.02;102739.03;5085929;28;20027;-79
2022/01/30 01:23:24;;;;;;;19.53;2.80;;;;;;;4.52;85.04;102742.56;5088180;28;20521;-78
2022/01/30 01:23:48;;;;;;;15.95;3.08;;;;;;;4.51;85.16;102735.69;5081909;28;20032;-79
2022/01/30 01:26:14;;;;;;;24.45;3.25;;;;;;;4.46;85.13;102737.22;5085931;28;20037;-79
2022/01/30 01:28:40;;;;;;;22.20;2.85;;;;;;;4.43;85.46;102737.16;5088519;28;20030;-79
2022/01/30 01:31:06;;;;;;;21.80;2.55;;;;;;;4.41;85.67;102751.63;5087105;28;20071;-79
2022/01/30 01:34:03;;;;;;;19.73;3.00;;;;;;;4.38;85.15;102748.13;5070623;28;20117;-79
2022/01/30 01:36:17;;;;;;;21.30;3.00;;;;;;;4.33;85.15;102744.56;5088507;28;20043;-79
2022/01/30 01:38:42;;;;;;;20.65;2.72;;;;;;;4.30;85.49;102743.56;5088999;28;20040;-78
2022/01/30 01:41:08;;;;;;;21.73;2.85;;;;;;;4.31;85.60;102750.44;5085121;28;20107;-79
2022/01/30 01:43:35;;;;;;;21.45;3.40;;;;;;;4.28;85.96;102743.53;5068867;28;20024;-79
2022/01/30 01:46:01;;;;;;;20.77;2.80;;;;;;;4.23;85.43;102747.63;5079984;28;20025;-79
2022/01/30 01:48:32;;;;;;;15.07;2.28;;;;;;;4.19;86.40;102750.94;5081094;28;20035;-79
2022/01/30 01:51:07;;;;;;;18.75;3.00;;;;;;;4.15;85.66;102753.34;5088945;28;20065;-79
2022/01/30 01:53:32;;;;;;;;;;;;;;;4.14;85.97;102761.88;5090761;28;20024;-79
2022/01/30 01:55:58;;;;;;;24.08;2.92;;;;;;;4.11;85.65;102765.19;5081053;28;20283;-79
2022/01/30 01:58:25;;;;;;;20.05;2.55;;;;;;;4.08;85.63;102761.66;5070082;28;20051;-79
2022/01/30 02:00:50;;;;;;;18.85;2.33;;;;;;;4.05;85.79;102752.16;5082807;28;20039;-79
2022/01/30 02:03:17;;;;;;;21.17;3.55;;;;;;;4.02;85.57;102751.19;5089433;28;20032;-79
2022/01/30 02:05:48;;;;;;;21.13;3.20;;;;;;;3.97;85.60;102744.19;5086438;28;20029;-79
2022/01/30 02:10:59;;;;;;;20.98;2.63;;;;;;;3.97;85.76;102751.91;5082720;28;20024;-79
2022/01/30 02:25:01;;;;;;;16.55;2.40;;;;;;;3.83;86.11;102752.25;5089570;28;20046;-80
2022/01/30 02:27:32;;;;;;;18.77;2.53;;;;;;;3.81;86.52;102738.50;5089564;28;20030;-80
2022/01/30 02:29:58;;;;;;;20.48;2.60;;;;;;;3.83;86.43;102747.13;5088152;28;20031;-78
2022/01/30 02:32:24;;;;;;;22.25;2.80;;;;;;;3.85;86.58;102748.03;5089725;28;20020;-79
2022/01/30 02:34:49;;;;;;;19.02;2.63;;;;;;;3.84;86.63;102743.72;5089668;28;20043;-79
2022/01/30 02:37:16;;;;;;;18.52;2.60;;;;;;;3.83;86.69;102741.97;5085193;28;20107;-79
2022/01/30 02:39:41;;;;;;;15.68;2.70;;;;;;;3.79;87.17;102737.59;5084924;28;20031;-79
2022/01/30 02:42:07;;;;;;;20.35;2.30;;;;;;;3.78;87.31;102733.25;5086314;28;20024;-79
2022/01/30 02:44:55;;;;;;;17.40;2.70;;;;;;;3.81;87.15;102735.94;5089332;28;20027;-79
2022/01/30 02:47:38;;;;;;;25.30;2.70;;;;;;;3.77;87.09;102723.81;5070081;28;20024;-79
2022/01/30 02:50:20;;;;;;;21.67;2.22;;;;;;;3.78;87.08;102723.88;5076258;28;20069;-79
2022/01/30 02:52:55;;;;;;;19.92;2.20;;;;;;;3.77;87.49;102734.09;5074951;28;20020;-79
2022/01/30 02:55:20;;;;;;;17.92;2.13;;;;;;;3.73;87.29;102732.25;5072369;28;20032;-79
2022/01/30 02:57:46;;;;;;;17.77;2.45;;;;;;;3.74;87.62;102745.13;5077389;28;20028;-79
2022/01/30 03:00:11;;;;;;;21.65;2.60;;;;;;;3.73;87.48;102755.31;5072232;28;20465;-79
2022/01/30 03:02:37;;;;;;;21.85;2.45;;;;;;;3.71;87.59;102764.66;5076184;28;20049;-79
2022/01/30 03:05:02;;;;;;;19.05;2.42;;;;;;;3.66;87.93;102759.38;5087599;28;20050;-79
2022/01/30 03:07:28;;;;;;;17.63;2.40;;;;;;;3.65;87.66;102765.31;5088714;28;20035;-78
2022/01/30 03:09:53;;;;;;;21.05;2.75;;;;;;;3.64;88.04;102776.38;5077878;28;20414;-79
2022/01/30 03:12:19;;;;;;;26.45;3.17;;;;;;;3.64;87.64;102772.94;5077704;28;20320;-79
2022/01/30 03:14:44;;;;;;;17.15;3.08;;;;;;;3.64;88.03;102772.94;5093292;28;20040;-78
2022/01/30 03:17:09;;;;;;;18.10;2.50;;;;;;;3.64;87.54;102783.19;5085213;28;20020;-79
2022/01/30 03:19:35;;;;;;;19.80;2.55;;;;;;;3.63;87.54;102779.75;5082162;28;20029;-79
2022/01/30 03:22:00;;;;;;;26.55;2.97;;;;;;;3.67;87.75;102783.31;5091549;28;20039;-78
2022/01/30 03:24:25;;;;;;;24.20;2.75;;;;;;;3.65;88.08;102785.81;5093213;28;20032;-78
2022/01/30 03:26:51;;;;;;;17.92;1.92;;;;;;;3.68;87.58;102800.47;5088520;28;20027;-78
2022/01/30 03:29:17;;;;;;;18.77;2.88;;;;;;;3.75;87.79;102803.31;5075501;28;20459;-78
2022/01/30 03:31:42;;;;;;;17.65;2.38;;;;;;;3.88;88.26;102808.03;5086851;28;20032;-78
2022/01/30 03:34:11;;;;;;;15.20;2.28;;;;;;;4.02;86.92;102805.09;5082359;28;20023;-78
2022/01/30 03:36:37;;;;;;;15.27;2.10;;;;;;;4.13;86.70;102814.00;5089944;28;20036;-78
2022/01/30 03:39:04;;;;;;;17.52;2.30;;;;;;;4.21;86.32;102813.47;5071594;28;20080;-78
2022/01/30 03:41:30;;;;;;;18.15;2.63;;;;;;;4.21;85.99;102821.16;5083946;28;20111;-78
2022/01/30 03:43:55;;;;;;;16.85;1.90;;;;;;;4.14;86.20;102826.91;5094492;28;20202;-79
2022/01/30 03:46:22;;;;;;;24.38;2.28;;;;;;;4.04;86.30;102829.06;5095861;28;20055;-79
2022/01/30 03:48:47;;;;;;;17.70;2.60;;;;;;;3.95;86.77;102837.34;5090382;28;20051;-79
2022/01/30 03:51:13;;;;;;;26.95;2.58;;;;;;;3.88;86.11;102843.06;5091471;28;20031;-79
2022/01/30 03:53:39;;;;;;;15.77;2.30;;;;;;;3.81;86.73;102838.53;5092689;28;20038;-79
2022/01/30 03:56:05;;;;;;;12.00;2.72;;;;;;;3.79;86.40;102843.63;5086003;28;20020;-79
2022/01/30 03:58:32;;;;;;;16.15;2.63;;;;;;;3.79;86.48;102850.44;5092321;28;20138;-79
2022/01/30 04:00:57;;;;;;;12.52;2.55;;;;;;;3.83;86.09;102850.59;5089211;28;20024;-79
2022/01/30 04:03:22;;;;;;;19.23;2.67;;;;;;;3.85;86.29;102855.78;5076935;28;20102;-79
2022/01/30 04:05:48;;;;;;;19.58;2.55;;;;;;;3.90;86.06;102862.81;5088475;28;20110;-79
2022/01/30 04:08:14;;;;;;;14.63;1.73;;;;;;;3.94;85.25;102862.13;5089275;28;20027;-79
2022/01/30 04:10:39;;;;;;;14.40;1.80;;;;;;;4.01;85.07;102863.22;5087376;28;20063;-79
2022/01/30 04:13:05;;;;;;;11.30;1.77;;;;;;;4.02;84.41;102864.09;5078555;28;20024;-79
2022/01/30 04:15:31;;;;;;;18.23;2.03;;;;;;;3.97;84.33;102863.91;5085052;28;20093;-79
2022/01/30 04:17:56;;;;;;;17.25;2.08;;;;;;;3.95;84.20;102858.75;5084575;28;20157;-79
2022/01/30 04:20:22;;;;;;;15.13;2.38;;;;;;;3.89;83.62;102861.06;5081451;28;20068;-79
2022/01/30 04:22:47;;;;;;;14.00;1.70;;;;;;;3.87;83.47;102862.72;5085099;28;20406;-79
2022/01/30 04:25:13;;;;;;;11.57;1.70;;;;;;;3.83;83.84;102859.97;5086748;28;20028;-79
2022/01/30 04:27:38;;;;;;;13.23;1.30;;;;;;;3.79;84.34;102863.25;5078606;28;20024;-79
2022/01/30 04:30:05;;;;;;;14.60;1.83;;;;;;;3.74;85.40;102869.91;5083320;28;20028;-79
2022/01/30 04:32:33;;;;;;;11.52;1.42;;;;;;;3.68;83.67;102865.44;5088529;28;20085;-80
2022/01/30 04:35:00;;;;;;;12.63;1.45;;;;;;;3.65;84.06;102864.44;5091855;28;20016;-80
2022/01/30 04:37:43;;;;;;;10.40;1.40;;;;;;;3.61;84.06;102871.16;5075600;28;20045;-78
2022/01/30 04:59:41;;;;;;;12.98;1.42;;;;;;;3.24;86.12;102870.56;5084945;28;20543;-79
2022/01/30 05:02:10;;;;;;;9.05;1.55;;;;;;;3.22;85.58;102872.19;5087029;28;20047;-79
2022/01/30 05:04:56;;;;;;;12.13;1.55;;;;;;;3.23;85.75;102884.19;5084898;28;20040;-79
2022/01/30 05:09:46;;;;;;;13.25;1.33;;;;;;;3.18;85.87;102896.81;5078011;28;20427;-79
2022/01/30 05:12:13;;;;;;;6.43;1.48;;;;;;;3.16;85.73;102901.88;5072243;28;20032;-79
2022/01/30 05:14:39;;;;;;;9.95;1.40;;;;;;;3.15;85.46;102902.69;5080163;28;20112;-79
2022/01/30 05:17:06;;;;;;;13.60;1.75;;;;;;;3.15;85.65;102906.94;5087576;28;20115;-79
2022/01/30 05:19:32;;;;;;;11.02;1.33;;;;;;;3.14;85.26;102903.50;5085763;28;20122;-79
2022/01/30 05:21:58;;;;;;;5.47;1.35;;;;;;;3.16;85.36;102909.56;5090796;28;20028;-79
2022/01/30 05:24:24;;;;;;;11.20;1.30;;;;;;;3.12;84.91;102902.59;5085012;28;21020;-79
2022/01/30 05:26:51;;;;;;;9.10;1.48;;;;;;;3.11;85.25;102900.84;5081387;28;20040;-79
2022/01/30 05:29:17;;;;;;;9.65;1.33;;;;;;;3.14;85.03;102916.31;5084220;28;20092;-78
2022/01/30 05:31:43;;;;;;;9.65;1.15;;;;;;;3.15;85.53;102918.06;5072138;28;20085;-79
2022/01/30 05:34:09;;;;;;;12.32;1.85;;;;;;;3.14;85.23;102908.63;5078517;28;20494;-79
2022/01/30 05:36:38;;;;;;;8.80;2.08;;;;;;;3.16;84.42;102913.81;5075890;28;20036;-79
2022/01/30 05:39:04;;;;;;;12.73;1.80;;;;;;;3.15;84.39;102918.06;5076291;28;20560;-79
2022/01/30 05:41:30;;;;;;;9.80;1.55;;;;;;;3.11;84.63;102905.97;5085077;28;20077;-79
2022/01/30 05:43:58;;;;;;;11.20;1.65;;;;;;;3.13;85.22;102913.72;5073146;28;20024;-79
2022/01/30 05:46:35;;;;;;;10.77;1.60;;;;;;;3.10;84.52;102911.88;5073878;28;20032;-79
2022/01/30 05:49:03;;;;;;;12.32;1.70;;;;;;;3.10;84.81;102911.88;5084756;28;20024;-79
2022/01/30 05:51:28;;;;;;;15.70;1.77;;;;;;;3.07;84.85;102916.03;5083828;28;20024;-78
2022/01/30 05:53:53;;;;;;;13.23;1.55;;;;;;;3.03;84.65;102919.25;5072238;28;20085;-79
2022/01/30 05:56:19;;;;;;;14.15;1.50;;;;;;;3.00;85.40;102912.31;5082736;28;20383;-79
2022/01/30 05:58:44;;;;;;;11.95;1.50;;;;;;;2.96;85.14;102915.59;5089982;28;20090;-78
2022/01/30 06:01:09;;;;;;;9.43;1.45;;;;;;;2.94;85.18;102919.75;5082424;28;20430;-78
2022/01/30 06:03:35;;;;;;;18.00;1.77;;;;;;;2.89;85.64;102923.81;5076830;28;20059;-78
2022/01/30 06:06:01;;;;;;;9.73;1.42;;;;;;;2.87;86.12;102924.56;5074190;28;20048;-78
2022/01/30 06:08:57;;;;;;;13.02;1.45;;;;;;;2.89;85.65;102923.81;5070570;28;20112;-78
2022/01/30 06:11:22;;;;;;;12.27;1.60;;;;;;;2.90;85.28;102934.94;5075912;28;20032;-79
2022/01/30 06:13:47;;;;;;;10.15;1.20;;;;;;;2.90;85.07;102938.38;5088093;28;20042;-79
2022/01/30 06:16:12;;;;;;;14.68;1.40;;;;;;;2.92;85.08;102931.66;5078253;28;20021;-79
2022/01/30 06:18:38;;;;;;;9.25;1.45;;;;;;;2.99;85.08;102936.22;5074084;28;20031;-79
2022/01/30 06:21:03;;;;;;;8.77;1.48;;;;;;;3.06;84.74;102927.09;5094116;28;20031;-79
2022/01/30 06:23:28;;;;;;;16.95;1.70;;;;;;;3.06;84.91;102924.53;5088117;28;20084;-79
2022/01/30 06:25:54;;;;;;;16.60;1.35;;;;;;;3.03;84.58;102927.81;5079813;28;20393;-80
2022/01/30 06:28:19;;;;;;;10.90;2.10;;;;;;;3.00;84.64;102927.69;5073278;28;20143;-79
2022/01/30 06:30:45;;;;;;;12.75;1.92;;;;;;;2.96;84.82;102932.63;5081532;28;20056;-79
2022/01/30 06:33:10;;;;;;;13.45;1.50;;;;;;;2.96;84.66;102942.88;5086722;28;20028;-79
2022/01/30 06:35:35;;;;;;;15.95;1.67;;;;;;;2.97;84.30;102936.94;5078581;28;20296;-79
2022/01/30 06:38:04;;;;;;;8.50;1.52;;;;;;;2.94;84.07;102945.38;5087413;28;20067;-79
2022/01/30 06:40:29;;;;;;;10.30;1.88;;;;;;;2.89;84.50;102939.19;5089425;28;20035;-79
2022/01/30 06:42:55;;;;;;;13.88;1.45;;;;;;;2.88;84.54;102954.50;5075073;28;20111;-79
2022/01/30 06:45:20;;;;;;;14.80;1.40;;;;;;;2.83;84.73;102953.44;5074177;28;20028;-79
2022/01/30 06:47:46;;;;;;;13.40;1.52;;;;;;;2.82;84.62;102955.13;5076365;28;20498;-80
2022/01/30 06:50:13;;;;;;;14.65;1.38;;;;;;;2.82;84.72;102959.34;5074495;28;20088;-79
2022/01/30 06:52:38;;;;;;;16.02;2.03;;;;;;;2.81;84.80;102953.34;5091681;28;20024;-79
2022/01/30 06:55:05;;;;;;;14.90;2.30;;;;;;;2.83;85.13;102958.56;5089689;28;20364;-79
2022/01/30 06:57:31;;;;;;;16.67;1.65;;;;;;;2.84;84.69;102965.44;5084465;28;20016;-79
2022/01/30 06:59:56;;;;;;;12.32;1.52;;;;;;;2.83;85.25;102961.13;5088117;28;20030;-80
2022/01/30 07:02:21;;;;;;;10.25;1.10;;;;;;;2.84;85.26;102968.88;5087831;28;20028;-79
2022/01/30 07:04:48;;;;;;;13.60;1.48;;;;;;;2.83;84.88;102968.78;5084370;28;20020;-80
2022/01/30 07:07:13;;;;;;;14.75;1.50;;;;;;;2.83;85.30;102982.47;5081486;28;20481;-80
2022/01/30 07:09:38;;;;;;;13.38;1.77;;;;;;;2.81;85.28;102980.66;5081944;28;20036;-80
2022/01/30 07:12:04;;;;;;;12.93;1.63;;;;;;;2.80;85.63;102989.19;5084527;28;20111;-81
2022/01/30 07:14:29;;;;;;;13.70;1.48;;;;;;;2.80;85.34;102989.19;5085023;28;20282;-79
2022/01/30 07:16:55;;;;;;;13.65;1.50;;;;;;;2.77;84.90;102988.22;5076418;28;20024;-79
2022/01/30 07:19:21;;;;;;;14.18;2.10;;;;;;;2.79;85.56;102983.19;5088485;28;20044;-80
2022/01/30 07:21:46;;;;;;;12.68;1.70;;;;;;;2.77;86.14;102987.34;5089087;28;20039;-80
2022/01/30 07:24:12;;;;;;;13.48;1.90;;;;;;;2.72;85.53;102993.97;5075474;28;20112;-80
2022/01/30 07:26:37;;;;;;;14.00;1.80;;;;;;;2.68;86.07;102994.63;5085629;28;20031;-79
2022/01/30 07:29:04;;;;;;;9.05;1.40;;;;;;;2.71;86.34;102997.34;5088586;28;20023;-79
2022/01/30 07:31:30;;;;;;;11.32;1.60;;;;;;;2.72;86.20;102996.53;5081563;28;20056;-80
2022/01/30 07:33:56;;;;;;;14.50;1.85;;;;;;;2.75;86.03;103002.63;5069250;28;20070;-80
2022/01/30 07:36:22;;;;;;;12.13;2.10;;;;;;;2.79;86.16;103006.22;5086379;28;20024;-79
2022/01/30 07:38:47;;;;;;;16.58;1.83;;;;;;;2.78;87.29;103005.34;5092068;28;20044;-79
2022/01/30 07:41:13;;;;;;;11.35;1.70;;;;;;;2.80;86.59;103012.22;5102001;28;20059;-79
2022/01/30 07:43:38;;;;;;;13.43;1.65;;;;;;;2.83;86.39;103015.78;5088588;28;20501;-80
2022/01/30 07:46:04;;;;;;;12.27;1.60;;;;;;;2.86;86.42;103020.16;5081334;28;20031;-80
2022/01/30 07:48:30;;;;;;;10.20;2.25;;;;;;;2.91;85.87;103018.66;5088560;28;20050;-80
2022/01/30 07:50:55;;;;;;;11.27;1.35;;;;;;;2.97;85.65;103021.47;5087715;28;20077;-80
2022/01/30 07:53:21;;;;;;;10.88;1.50;;;;;;;3.01;85.65;103018.22;5084672;28;20024;-79
2022/01/30 07:55:46;;;;;;;17.52;1.88;;;;;;;3.08;85.39;103028.78;5092709;28;20077;-80
2022/01/30 07:58:12;;;;;;;15.10;2.30;;;;;;;3.09;85.17;103028.00;5079050;28;20024;-79
2022/01/30 08:00:38;;;;;;;16.67;2.55;;;;;;;3.15;85.35;103030.81;5091265;28;20047;-80
2022/01/30 08:03:04;;;;;;;17.50;2.20;;;;;;;3.19;84.88;103026.69;5092643;28;20107;-79
2022/01/30 08:05:29;;;;;;;14.00;1.67;;;;;;;3.23;84.53;103031.13;5090952;28;20127;-79
2022/01/30 08:07:54;;;;;;;14.80;1.58;;;;;;;3.30;84.12;103029.69;4386728;28;10000012;-79
2022/01/30 08:10:20;;;;;;;16.65;2.03;;;;;;;3.36;84.21;103045.31;5092917;28;20091;-79
2022/01/30 08:12:45;;;;;;;19.58;2.53;;;;;;;3.40;84.28;103044.66;5087851;28;20016;-79
2022/01/30 08:15:11;;;;;;;17.60;1.90;;;;;;;3.45;84.02;103048.28;5092257;28;20540;-79
2022/01/30 08:17:37;;;;;;;15.23;1.95;;;;;;;3.49;83.65;103045.88;5092317;28;20420;-79
2022/01/30 08:20:05;;;;;;;15.80;2.30;;;;;;;3.62;83.80;103038.72;5092354;28;20162;-79
2022/01/30 08:22:31;;;;;;;16.88;1.85;;;;;;;3.78;82.99;103033.34;5086897;28;20088;-79
2022/01/30 08:24:57;;;;;;;16.67;1.90;;;;;;;3.98;82.42;103042.69;5092567;28;20178;-79
2022/01/30 08:27:22;;;;;;;21.13;2.17;;;;;;;4.13;81.53;103050.09;5092197;28;20032;-79
2022/01/30 08:29:47;;;;;;;12.20;2.03;;;;;;;4.23;81.10;103047.09;5092116;28;20020;-79
2022/01/30 08:32:13;;;;;;;11.47;2.17;;;;;;;4.28;80.91;103045.56;4740849;28;10000379;-79
2022/01/30 08:34:39;;;;;;;16.27;1.98;;;;;;;4.35;81.15;103039.84;5088183;28;20031;-80
2022/01/30 08:37:05;;;;;;;18.70;2.45;;;;;;;4.72;80.45;103044.59;5086393;28;20024;-80
2022/01/30 08:39:30;;;;;;;18.77;2.25;;;;;;;5.24;79.55;103044.72;5077970;28;20054;-79
2022/01/30 08:41:55;;;;;;;20.27;2.17;;;;;;;5.74;76.82;103032.59;5088294;28;20032;-82
2022/01/30 08:44:21;;;;;;;14.93;1.83;;;;;;;5.74;75.34;103045.47;5084015;28;20262;-82
2022/01/30 08:46:46;;;;;;;18.88;2.38;;;;;;;5.52;75.69;103046.50;5080528;28;20023;-82
2022/01/30 08:49:13;;;;;;;18.37;2.87;;;;;;;5.29;76.02;103040.59;5070116;28;20021;-82
2022/01/30 08:51:38;;;;;;;13.65;2.33;;;;;;;5.19;76.95;103041.09;5082311;28;20294;-83
2022/01/30 08:54:03;;;;;;;16.40;2.20;;;;;;;5.15;76.77;103047.84;5090956;28;20077;-82
2022/01/30 08:56:29;;;;;;;19.15;2.05;;;;;;;5.07;77.13;103058.69;5084405;28;20285;-82
2022/01/30 08:58:54;;;;;;;15.73;2.35;;;;;;;4.98;77.63;103053.25;5085271;28;20050;-82
2022/01/30 09:01:19;;;;;;;16.38;2.08;;;;;;;4.94;77.10;103056.50;5087115;28;20024;-82
2022/01/30 09:03:45;;;;;;;19.30;2.30;;;;;;;5.00;78.16;103065.31;5083869;28;20047;-82
2022/01/30 09:06:10;;;;;;;16.38;2.20;;;;;;;5.24;78.50;103072.13;5071425;28;20027;-82
2022/01/30 09:08:36;;;;;;;15.38;2.60;;;;;;;5.36;76.44;103067.38;5081681;28;20419;-82
2022/01/30 09:11:01;;;;;;;16.20;2.20;;;;;;;5.27;75.80;103065.38;5081773;28;20047;-82
2022/01/30 09:13:27;;;;;;;19.63;2.17;;;;;;;5.22;75.96;103074.63;5089254;28;20081;-82
2022/01/30 09:15:57;;;;;;;16.10;2.10;;;;;;;5.21;76.68;103084.84;5090338;28;20031;-82
2022/01/30 09:18:23;;;;;;;18.13;2.38;;;;;;;5.20;77.76;103076.25;5089138;28;20075;-82
2022/01/30 09:20:49;;;;;;;18.52;2.47;;;;;;;5.22;77.09;103082.34;5090806;28;20505;-82
2022/01/30 09:23:14;;;;;;;16.67;2.22;;;;;;;5.28;76.61;103089.38;5086449;28;20031;-82
2022/01/30 09:25:40;;;;;;;11.05;1.85;;;;;;;5.31;76.72;103092.06;5071271;28;20117;-82
2022/01/30 09:28:06;;;;;;;19.75;2.85;;;;;;;5.35;76.91;103088.78;5081814;28;20081;-85
2022/01/30 09:30:31;;;;;;;19.75;2.45;;;;;;;5.35;76.32;103088.78;5091001;28;20058;-87
2022/01/30 09:32:57;;;;;;;16.88;2.17;;;;;;;5.40;76.51;103094.94;5075393;28;20032;-87
2022/01/30 09:35:23;;;;;;;17.38;2.20;;;;;;;5.42;77.26;103083.88;5075035;28;20363;-87
2022/01/30 09:37:48;;;;;;;19.45;2.42;;;;;;;5.45;76.40;103090.84;5090476;28;20282;-88
2022/01/30 09:40:17;;;;;;;14.95;2.10;;;;;;;5.47;77.52;103086.59;5072510;28;20059;-85
2022/01/30 09:42:45;;;;;;;19.48;2.60;;;;;;;5.51;76.45;103101.34;5081061;28;20052;-86
2022/01/30 09:45:11;;;;;;;16.52;2.75;;;;;;;5.57;76.46;103106.69;5090426;28;20020;-86
2022/01/30 09:47:37;;;;;;;15.20;2.65;;;;;;;5.64;76.35;103100.03;5088299;28;20488;-86
2022/01/30 09:50:04;;;;;;;18.27;2.83;;;;;;;5.69;76.31;103088.19;5087008;28;20027;-85
2022/01/30 09:52:30;;;;;;;18.70;2.38;;;;;;;5.77;75.88;103107.31;5096587;28;20032;-85
2022/01/30 09:54:55;;;;;;;21.67;2.80;;;;;;;5.85;74.68;103105.88;5083521;28;20039;-84
2022/01/30 09:57:20;;;;;;;17.95;2.17;;;;;;;5.90;74.99;103101.78;5083076;28;20128;-85
2022/01/30 09:59:46;;;;;;;16.60;2.80;;;;;;;5.96;73.88;103104.53;5091797;28;20176;-78
2022/01/30 10:02:12;;;;;;;19.92;2.40;;;;;;;6.08;74.67;103111.75;5095452;28;20110;-78
2022/01/30 10:04:39;;;;;;;20.40;2.53;;;;;;;6.22;75.06;103111.38;5090482;28;20032;-78
2022/01/30 10:07:12;;;;;;;17.02;2.50;;;;;;;6.37;73.71;103112.66;5089972;28;20386;-78
2022/01/30 10:09:43;;;;;;;19.90;2.58;;;;;;;6.45;74.02;103124.94;5089723;28;20028;-78
2022/01/30 10:12:20;;;;;;;16.58;2.25;;;;;;;6.52;73.41;103126.00;5078341;28;20033;-79
2022/01/30 10:14:59;;;;;;;22.20;3.08;;;;;;;6.67;74.18;103135.06;5088002;28;20027;-79
2022/01/30 10:17:37;;;;;;;17.13;2.97;;;;;;;6.81;72.38;103135.47;5083833;28;20084;-78
2022/01/30 10:20:12;;;;;;;17.92;2.30;;;;;;;6.86;72.26;103133.88;5085766;28;20039;-78
2022/01/30 10:22:53;;;;;;;19.50;2.40;;;;;;;6.82;71.17;103142.38;5095243;28;20040;-79
2022/01/30 10:25:21;;;;;;;17.42;2.58;;;;;;;6.69;72.00;103137.66;5087277;28;20055;-79
2022/01/30 10:27:47;;;;;;;15.88;2.28;;;;;;;6.58;72.99;103142.50;5085387;28;20031;-79
2022/01/30 10:30:20;;;;;;;21.40;2.75;;;;;;;6.50;72.41;103132.81;5088961;28;20016;-79
2022/01/30 10:32:56;;;;;;;18.95;2.17;;;;;;;6.46;73.25;103130.97;5089090;28;20020;-79
2022/01/30 10:35:22;;;;;;;20.50;3.03;;;;;;;6.42;72.94;103131.69;5090040;28;20035;-79
2022/01/30 10:37:48;;;;;;;15.68;2.33;;;;;;;6.41;73.58;103135.13;5088260;28;20040;-79
2022/01/30 10:40:27;;;;;;;21.33;2.92;;;;;;;6.43;71.82;103141.19;5077854;28;20082;-79
2022/01/30 10:42:54;;;;;;;26.92;3.40;;;;;;;6.42;72.59;103132.56;5081959;28;20058;-79
2022/01/30 10:45:19;;;;;;;22.88;3.67;;;;;;;6.43;71.93;103129.16;5069713;28;20024;-79
2022/01/30 10:47:45;;;;;;;17.77;3.00;;;;;;;6.49;73.24;103131.94;5087073;28;20081;-79
2022/01/30 10:50:19;;;;;;;16.85;2.50;;;;;;;6.51;73.70;103134.56;5087742;28;20060;-79
2022/01/30 10:52:52;;;;;;;;;;;;;;;6.53;72.90;103135.47;5087143;28;20402;-79
2022/01/30 10:55:31;;;;;;;26.38;2.70;;;;;;;6.56;72.52;103131.28;5087803;28;19934;-79
2022/01/30 10:57:59;;;;;;;20.83;2.65;;;;;;;6.62;71.73;103125.44;5077543;28;20391;-79
2022/01/30 11:00:49;;;;;;;20.42;2.97;;;;;;;6.66;72.08;103117.84;5067901;28;20494;-79
2022/01/30 11:03:37;;;;;;;23.23;2.75;;;;;;;6.73;71.25;103126.63;5076298;28;20105;-79
2022/01/30 11:06:07;;;;;;;21.17;2.50;;;;;;;6.81;69.94;103119.13;5089133;28;20020;-79
2022/01/30 11:08:33;;;;;;;20.73;2.92;;;;;;;6.94;70.10;103114.34;5089062;28;20490;-79
2022/01/30 11:11:32;;;;;;;19.42;2.72;;;;;;;7.04;69.81;103116.34;5089186;28;20051;-79
2022/01/30 11:14:36;;;;;;;17.10;2.40;;;;;;;7.02;68.78;103112.88;5089400;28;20107;-79
2022/01/30 11:16:59;;;;;;;25.83;2.72;;;;;;;7.17;70.09;103096.03;5086945;28;20031;-79
2022/01/30 11:19:25;;;;;;;21.73;3.10;;;;;;;7.33;69.11;103088.75;5087761;28;20042;-79
2022/01/30 11:21:53;;;;;;;25.05;3.05;;;;;;;7.40;68.50;103089.78;5085076;28;20269;-79
2022/01/30 11:24:23;;;;;;;21.77;2.92;;;;;;;7.48;69.06;103099.47;5090099;28;20074;-80
2022/01/30 11:26:48;;;;;;;26.85;2.92;;;;;;;7.54;68.71;103096.16;5087990;28;20021;-79
2022/01/30 11:29:16;;;;;;;22.98;2.95;;;;;;;7.56;69.56;103096.19;5089355;28;20031;-80
2022/01/30 11:31:42;;;;;;;19.33;2.53;;;;;;;7.54;67.88;103091.00;5087446;28;20020;-79
2022/01/30 11:34:07;;;;;;;19.10;2.80;;;;;;;7.56;67.35;103086.75;5090755;28;20032;-80
2022/01/30 11:36:37;;;;;;;19.48;2.40;;;;;;;7.58;67.88;103090.22;5091025;28;20032;-80
2022/01/30 11:39:04;;;;;;;23.55;3.08;;;;;;;7.67;69.58;103093.03;5091747;28;20040;-80
2022/01/30 11:41:31;;;;;;;22.27;2.83;;;;;;;7.74;66.98;103094.94;5092426;28;20435;-80
2022/01/30 11:44:18;;;;;;;16.02;2.65;;;;;;;7.72;68.37;103088.84;5080056;28;20056;-79
2022/01/30 11:46:44;;;;;;;23.77;3.00;;;;;;;7.68;67.67;103083.59;5089131;28;20024;-79
2022/01/30 11:49:14;;;;;;;19.95;2.60;;;;;;;7.88;67.75;103079.75;5080708;28;20024;-79
2022/01/30 11:51:50;;;;;;;19.33;2.78;;;;;;;8.22;68.13;103083.97;5088530;28;20027;-77
2022/01/30 11:54:35;;;;;;;16.05;2.47;;;;;;;8.40;67.79;103070.59;5083072;28;20020;-76
2022/01/30 11:57:02;;;;;;;20.30;2.70;;;;;;;8.42;64.46;103068.94;5078744;28;20498;-76
2022/01/30 11:59:38;;;;;;;18.13;2.50;;;;;;;8.46;65.53;103070.75;5092832;28;20090;-76
2022/01/30 12:02:29;;;;;;;17.52;2.70;;;;;;;8.42;65.10;103079.28;5078910;28;20486;-77
2022/01/30 12:04:56;;;;;;;16.02;2.42;;;;;;;8.26;65.31;103083.19;5091457;28;20456;-79
2022/01/30 12:07:37;;;;;;;16.40;2.95;;;;;;;8.12;63.59;103077.72;5091177;28;20251;-78
2022/01/30 12:10:25;;;;;;;24.85;2.55;;;;;;;7.91;63.15;103085.84;5087694;28;20107;-78
2022/01/30 12:12:50;;;;;;;16.95;2.20;;;;;;;7.71;63.79;103081.09;5072218;28;20099;-77
2022/01/30 12:15:36;;;;;;;16.83;2.50;;;;;;;7.59;66.11;103081.66;5086474;28;20135;-78
2022/01/30 12:18:04;;;;;;;22.40;2.67;;;;;;;7.47;65.62;103071.91;5091966;28;20106;-78
2022/01/30 12:20:33;;;;;;;17.60;2.80;;;;;;;7.45;65.17;103078.72;5092337;28;20109;-78